Hjaltland — VSTY8 — position and weather

sailwx.info

Track history (hours):
 
Tides and Currents Weather Stations Pressure Air Temp Water Temp Dewpoint Dewpoint Depression Visibility Wind Speed Wind Dir Waves Ship Positions

Hjaltland

Operator: NorthLink Orkey & Shetland Ferries Ltd

Last reported at 2017-Aug-22 21:53 UTC. Time now 2017-Aug-22 22:28 UTC.
Position N 58°60' W 002°58'.

Type: Passenger vessel. MMSI: 235450000.

Date/timePositionNaut miles runAvg speedWind from/ knotsBaromVisibWave heightAir tempDewpointWater temp
2017-Aug-22 21:53N 58°60' W 002°58'410.8
2017-Aug-22 21:30N 59°01' W 002°51'1019.6
2017-Aug-22 21:00N 58°54' W 002°36'6723.3
2017-Aug-22 18:08N 57°52' W 001°49'324.0
2017-Aug-22 18:00N 57°49' W 001°47'1224.6
2017-Aug-22 17:31N 57°38' W 001°39'1223.9
2017-Aug-22 17:00N 57°26' W 001°41'1223.8
2017-Aug-22 16:31N 57°16' W 001°53'1019.2
2017-Aug-22 16:01N 57°08' W 002°04'1 1.4
2017-Aug-22 15:30N 57°09' W 002°05'0 0.0
2017-Aug-22 15:00N 57°09' W 002°05'0 0.0
2017-Aug-22 14:30N 57°09' W 002°05'0 0.0
2017-Aug-22 14:00N 57°09' W 002°05'0 0.0
2017-Aug-22 13:30N 57°09' W 002°05'0 0.0
2017-Aug-22 13:00N 57°09' W 002°05'0 0.0
2017-Aug-22 12:30N 57°09' W 002°05'0 0.0
2017-Aug-22 12:00N 57°09' W 002°05'0 0.0
2017-Aug-22 11:30N 57°09' W 002°05'0 0.0
2017-Aug-22 11:00N 57°09' W 002°05'0 0.0
2017-Aug-22 10:30N 57°09' W 002°05'0 0.0
2017-Aug-22 10:00N 57°09' W 002°05'0 0.0
2017-Aug-22 09:30N 57°09' W 002°05'0 0.0
2017-Aug-22 09:00N 57°09' W 002°05'0 0.0
2017-Aug-22 08:30N 57°09' W 002°05'0 0.0
2017-Aug-22 08:00N 57°09' W 002°05'0 0.0
2017-Aug-22 07:30N 57°09' W 002°05'0 0.0
2017-Aug-22 07:00N 57°09' W 002°05'0 0.0
2017-Aug-22 06:30N 57°09' W 002°05'0 0.0
2017-Aug-22 06:00N 57°09' W 002°05'0 0.9
2017-Aug-22 05:31N 57°09' W 002°05'5 9.1
2017-Aug-22 05:00N 57°12' W 001°58'2319.2
2017-Aug-22 03:50N 57°32' W 001°41'619.7
2017-Aug-22 03:30N 57°39' W 001°43'1020.3
2017-Aug-22 03:00N 57°49' W 001°47'7221.1
2017-Aug-21 23:34N 58°56' W 002°37'223.9
2017-Aug-21 23:30N 58°57' W 002°39'1020.9
2017-Aug-21 23:00N 59°01' W 002°57'1 1.4
2017-Aug-21 22:01N 58°60' W 002°58'0 0.6
2017-Aug-21 21:56N 58°60' W 002°58'511.2
2017-Aug-21 21:30N 59°01' W 002°49'12 0.5
2017-Aug-21 00:15N 59°04' W 002°28'312.6
2017-Aug-21 00:00N 59°01' W 002°32'611.9
2017-Aug-20 23:30N 59°00' W 002°43'713.6
2017-Aug-20 23:00N 59°01' W 002°56'2 1.6
2017-Aug-20 21:50N 58°60' W 002°58'411.4
2017-Aug-20 21:29N 59°01' W 002°51'1020.0
2017-Aug-20 21:01N 58°55' W 002°36'6522.8
2017-Aug-20 18:09N 57°54' W 001°50'323.3
2017-Aug-20 18:00N 57°51' W 001°47'1223.7
2017-Aug-20 17:30N 57°40' W 001°40'1923.0
2017-Aug-20 16:40N 57°21' W 001°47'424.1
2017-Aug-20 16:30N 57°18' W 001°51'1122.5
2017-Aug-20 16:00N 57°09' W 002°04'1 1.9
2017-Aug-20 15:29N 57°09' W 002°05'0 0.0
2017-Aug-20 14:59N 57°09' W 002°05'0 0.0
2017-Aug-20 14:29N 57°09' W 002°05'0 0.0
2017-Aug-20 13:59N 57°09' W 002°05'0 0.0
2017-Aug-20 13:29N 57°09' W 002°05'0 0.0
2017-Aug-20 12:59N 57°09' W 002°05'0 0.0
2017-Aug-20 12:29N 57°09' W 002°05'0 0.0
2017-Aug-20 11:59N 57°09' W 002°05'0 0.0
2017-Aug-20 11:29N 57°09' W 002°05'0 0.0
2017-Aug-20 10:59N 57°09' W 002°05'0 0.0
2017-Aug-20 10:29N 57°09' W 002°05'0 0.0
2017-Aug-20 09:59N 57°09' W 002°05'0 0.0
2017-Aug-20 09:29N 57°09' W 002°05'0 0.0
2017-Aug-20 08:59N 57°09' W 002°05'0 0.0
2017-Aug-20 08:29N 57°09' W 002°05'0 0.0
2017-Aug-20 07:59N 57°09' W 002°05'0 0.0
2017-Aug-20 07:29N 57°09' W 002°05'0 0.0
2017-Aug-20 06:59N 57°09' W 002°05'0 0.0
2017-Aug-20 06:29N 57°09' W 002°05'0 0.0
2017-Aug-20 05:59N 57°09' W 002°05'0 0.0
2017-Aug-20 05:30N 57°09' W 002°05'1 2.5
2017-Aug-20 05:00N 57°09' W 002°03'714.7
2017-Aug-20 04:30N 57°15' W 001°54'2412.5
2017-Aug-20 02:36N 57°36' W 001°36'313.9
2017-Aug-20 02:23N 57°39' W 001°37'513.6
2017-Aug-20 02:00N 57°44' W 001°37'713.4
2017-Aug-20 01:30N 57°51' W 001°37'5 0.2
2017-Aug-18 20:31N 57°46' W 001°36'016.7
2017-Aug-18 20:30N 57°46' W 001°36'817.0
2017-Aug-18 20:01N 57°37' W 001°37'2117.2
2017-Aug-18 18:47N 57°17' W 001°51'518.8
2017-Aug-18 18:30N 57°13' W 001°57'612.9
2017-Aug-18 18:00N 57°09' W 002°05'0 0.8
2017-Aug-18 17:30N 57°09' W 002°05'0 0.0
2017-Aug-18 17:00N 57°09' W 002°05'0 0.0
2017-Aug-18 16:30N 57°09' W 002°05'0 0.0
2017-Aug-18 16:00N 57°09' W 002°05'0 0.0
2017-Aug-18 15:30N 57°09' W 002°05'0 0.0
2017-Aug-18 15:00N 57°09' W 002°05'0 0.0
2017-Aug-18 14:30N 57°09' W 002°05'0 0.0
2017-Aug-18 13:30N 57°09' W 002°05'0 0.0
2017-Aug-18 13:00N 57°09' W 002°05'0 0.0
2017-Aug-18 12:30N 57°09' W 002°05'0 0.0
2017-Aug-18 11:57N 57°09' W 002°05'0 0.0
2017-Aug-18 11:30N 57°09' W 002°05'0 0.0
2017-Aug-18 11:00N 57°09' W 002°05'0 0.0
2017-Aug-18 10:30N 57°09' W 002°05'0 0.0
2017-Aug-18 10:00N 57°09' W 002°05'0 0.0
2017-Aug-18 09:30N 57°09' W 002°05'0 0.0
2017-Aug-18 09:00N 57°09' W 002°05'0 0.0
2017-Aug-18 08:30N 57°09' W 002°05'0 0.0
2017-Aug-18 08:00N 57°09' W 002°05'0 0.0
2017-Aug-18 07:30N 57°09' W 002°05'0 0.0
2017-Aug-18 07:00N 57°09' W 002°05'0 0.0
2017-Aug-18 06:30N 57°09' W 002°05'0 0.0
2017-Aug-18 06:00N 57°09' W 002°05'0 1.0
2017-Aug-18 05:30N 57°09' W 002°05'3 5.0
2017-Aug-18 05:00N 57°10' W 002°01'510.4
2017-Aug-18 04:30N 57°14' W 001°55'2416.4
2017-Aug-18 03:02N 57°36' W 001°36'117.4
2017-Aug-18 03:00N 57°37' W 001°36'1217.2
2017-Aug-18 02:18N 57°49' W 001°38'3 0.1
2017-Aug-16 20:39N 57°52' W 001°37'618.7
2017-Aug-16 20:19N 57°46' W 001°37'518.0
2017-Aug-16 20:01N 57°40' W 001°36'2317.3
2017-Aug-16 18:41N 57°18' W 001°49'318.2
2017-Aug-16 18:31N 57°16' W 001°53'917.9
2017-Aug-16 18:00N 57°09' W 002°03'1 2.1
2017-Aug-16 17:28N 57°09' W 002°05'0 0.0
2017-Aug-16 16:58N 57°09' W 002°05'0 0.0
2017-Aug-16 16:28N 57°09' W 002°05'0 0.0
2017-Aug-16 15:58N 57°09' W 002°05'0 0.0
2017-Aug-16 15:28N 57°09' W 002°05'0 0.0
2017-Aug-16 14:58N 57°09' W 002°05'0 0.0
2017-Aug-16 14:28N 57°09' W 002°05'0 0.0
2017-Aug-16 13:58N 57°09' W 002°05'0 0.0
2017-Aug-16 13:28N 57°09' W 002°05'0 0.0
2017-Aug-16 12:58N 57°09' W 002°05'0 0.0
2017-Aug-16 12:28N 57°09' W 002°05'0 0.0
2017-Aug-16 11:58N 57°09' W 002°05'0 0.0
2017-Aug-16 11:28N 57°09' W 002°05'0 0.0
2017-Aug-16 10:58N 57°09' W 002°05'0 0.0
2017-Aug-16 10:28N 57°09' W 002°05'0 0.0
2017-Aug-16 09:58N 57°09' W 002°05'0 0.0
2017-Aug-16 09:28N 57°09' W 002°05'0 0.0
2017-Aug-16 08:58N 57°09' W 002°05'0 0.0
2017-Aug-16 08:28N 57°09' W 002°05'0 0.0
2017-Aug-16 07:58N 57°09' W 002°05'0 0.0
2017-Aug-16 07:28N 57°09' W 002°05'0 0.0
2017-Aug-16 06:58N 57°09' W 002°05'0 0.0
2017-Aug-16 06:28N 57°09' W 002°05'0 0.0
2017-Aug-16 05:59N 57°09' W 002°05'1 1.2
2017-Aug-16 05:31N 57°09' W 002°04'612.9
2017-Aug-16 05:00N 57°13' W 001°56'613.0
2017-Aug-16 04:30N 57°18' W 001°49'1913.0
2017-Aug-16 03:05N 57°36' W 001°37'118.1
2017-Aug-16 03:01N 57°37' W 001°38'1217.9
2017-Aug-16 02:19N 57°49' W 001°36'3 0.1
2017-Aug-14 20:42N 57°52' W 001°37'718.7
2017-Aug-14 20:19N 57°45' W 001°38'618.5
2017-Aug-14 20:01N 57°39' W 001°38'2117.6
2017-Aug-14 18:50N 57°19' W 001°48'618.1
2017-Aug-14 18:31N 57°14' W 001°54'816.2
2017-Aug-14 18:00N 57°09' W 002°04'1 1.4
2017-Aug-14 17:29N 57°09' W 002°05'0 0.0
2017-Aug-14 16:59N 57°09' W 002°05'0 0.0
2017-Aug-14 16:29N 57°09' W 002°05'0 0.0
2017-Aug-14 15:59N 57°09' W 002°05'0 0.0
2017-Aug-14 15:29N 57°09' W 002°05'0 0.0
2017-Aug-14 14:59N 57°09' W 002°05'0 0.0
2017-Aug-14 14:29N 57°09' W 002°05'0 0.0
2017-Aug-14 13:59N 57°09' W 002°05'0 0.0
2017-Aug-14 13:29N 57°09' W 002°05'0 0.0
2017-Aug-14 12:59N 57°09' W 002°05'0 0.0
2017-Aug-14 12:29N 57°09' W 002°05'0 0.0
2017-Aug-14 11:59N 57°09' W 002°05'0 0.0
2017-Aug-14 11:29N 57°09' W 002°05'0 0.0
2017-Aug-14 10:59N 57°09' W 002°05'0 0.0
2017-Aug-14 10:29N 57°09' W 002°05'0 0.0
2017-Aug-14 09:59N 57°09' W 002°05'0 0.0
2017-Aug-14 09:29N 57°09' W 002°05'0 0.0
2017-Aug-14 08:59N 57°09' W 002°05'0 0.0
2017-Aug-14 08:29N 57°09' W 002°05'0 0.0
2017-Aug-14 07:59N 57°09' W 002°05'0 0.0
2017-Aug-14 07:29N 57°09' W 002°05'0 0.0
2017-Aug-14 06:58N 57°09' W 002°05'0 0.0
2017-Aug-14 06:28N 57°09' W 002°05'0 0.0
2017-Aug-14 05:59N 57°09' W 002°05'1 1.4
2017-Aug-14 05:31N 57°08' W 002°04'612.5
2017-Aug-14 05:00N 57°13' W 001°56'1513.0
2017-Aug-14 03:53N 57°25' W 001°42'712.6
2017-Aug-14 03:20N 57°32' W 001°37'514.0
2017-Aug-14 03:00N 57°36' W 001°36'713.6
2017-Aug-14 02:29N 57°43' W 001°36'713.3
2017-Aug-14 01:58N 57°50' W 001°36'79 3.1
2017-Aug-13 00:11N 59°04' W 002°27'212.6
2017-Aug-13 00:00N 59°03' W 002°30'612.2
2017-Aug-12 23:30N 59°01' W 002°41'714.6
2017-Aug-12 23:00N 59°01' W 002°55'2 1.9
2017-Aug-12 21:54N 58°60' W 002°58'  
Track history (hours):
 
Tides and Currents Weather Stations Pressure Air Temp Water Temp Dewpoint Dewpoint Depression Visibility Wind Speed Wind Dir Waves Ship Positions

Hjaltland

Operator: NorthLink Orkey & Shetland Ferries Ltd

Last reported at 2017-Aug-22 21:53 UTC. Time now 2017-Aug-22 22:28 UTC.
Position N 58°60' W 002°58'.

Type: Passenger vessel. MMSI: 235450000.

Date/timePositionNaut miles runAvg speedWind from/ knotsBaromVisibWave heightAir tempDewpointWater temp
2017-Aug-22 21:53N 58°60' W 002°58'410.8
2017-Aug-22 21:30N 59°01' W 002°51'1019.6
2017-Aug-22 21:00N 58°54' W 002°36'6723.3
2017-Aug-22 18:08N 57°52' W 001°49'324.0
2017-Aug-22 18:00N 57°49' W 001°47'1224.6
2017-Aug-22 17:31N 57°38' W 001°39'1223.9
2017-Aug-22 17:00N 57°26' W 001°41'1223.8
2017-Aug-22 16:31N 57°16' W 001°53'1019.2
2017-Aug-22 16:01N 57°08' W 002°04'1 1.4
2017-Aug-22 15:30N 57°09' W 002°05'0 0.0
2017-Aug-22 15:00N 57°09' W 002°05'0 0.0
2017-Aug-22 14:30N 57°09' W 002°05'0 0.0
2017-Aug-22 14:00N 57°09' W 002°05'0 0.0
2017-Aug-22 13:30N 57°09' W 002°05'0 0.0
2017-Aug-22 13:00N 57°09' W 002°05'0 0.0
2017-Aug-22 12:30N 57°09' W 002°05'0 0.0
2017-Aug-22 12:00N 57°09' W 002°05'0 0.0
2017-Aug-22 11:30N 57°09' W 002°05'0 0.0
2017-Aug-22 11:00N 57°09' W 002°05'0 0.0
2017-Aug-22 10:30N 57°09' W 002°05'0 0.0
2017-Aug-22 10:00N 57°09' W 002°05'0 0.0
2017-Aug-22 09:30N 57°09' W 002°05'0 0.0
2017-Aug-22 09:00N 57°09' W 002°05'0 0.0
2017-Aug-22 08:30N 57°09' W 002°05'0 0.0
2017-Aug-22 08:00N 57°09' W 002°05'0 0.0
2017-Aug-22 07:30N 57°09' W 002°05'0 0.0
2017-Aug-22 07:00N 57°09' W 002°05'0 0.0
2017-Aug-22 06:30N 57°09' W 002°05'0 0.0
2017-Aug-22 06:00N 57°09' W 002°05'0 0.9
2017-Aug-22 05:31N 57°09' W 002°05'5 9.1
2017-Aug-22 05:00N 57°12' W 001°58'2319.2
2017-Aug-22 03:50N 57°32' W 001°41'619.7
2017-Aug-22 03:30N 57°39' W 001°43'1020.3
2017-Aug-22 03:00N 57°49' W 001°47'7221.1
2017-Aug-21 23:34N 58°56' W 002°37'223.9
2017-Aug-21 23:30N 58°57' W 002°39'1020.9
2017-Aug-21 23:00N 59°01' W 002°57'1 1.4
2017-Aug-21 22:01N 58°60' W 002°58'0 0.6
2017-Aug-21 21:56N 58°60' W 002°58'511.2
2017-Aug-21 21:30N 59°01' W 002°49'12 0.5
2017-Aug-21 00:15N 59°04' W 002°28'312.6
2017-Aug-21 00:00N 59°01' W 002°32'611.9
2017-Aug-20 23:30N 59°00' W 002°43'713.6
2017-Aug-20 23:00N 59°01' W 002°56'2 1.6
2017-Aug-20 21:50N 58°60' W 002°58'411.4
2017-Aug-20 21:29N 59°01' W 002°51'1020.0
2017-Aug-20 21:01N 58°55' W 002°36'6522.8
2017-Aug-20 18:09N 57°54' W 001°50'323.3
2017-Aug-20 18:00N 57°51' W 001°47'1223.7
2017-Aug-20 17:30N 57°40' W 001°40'1923.0
2017-Aug-20 16:40N 57°21' W 001°47'424.1
2017-Aug-20 16:30N 57°18' W 001°51'1122.5
2017-Aug-20 16:00N 57°09' W 002°04'1 1.9
2017-Aug-20 15:29N 57°09' W 002°05'0 0.0
2017-Aug-20 14:59N 57°09' W 002°05'0 0.0
2017-Aug-20 14:29N 57°09' W 002°05'0 0.0
2017-Aug-20 13:59N 57°09' W 002°05'0 0.0
2017-Aug-20 13:29N 57°09' W 002°05'0 0.0
2017-Aug-20 12:59N 57°09' W 002°05'0 0.0
2017-Aug-20 12:29N 57°09' W 002°05'0 0.0
2017-Aug-20 11:59N 57°09' W 002°05'0 0.0
2017-Aug-20 11:29N 57°09' W 002°05'0 0.0
2017-Aug-20 10:59N 57°09' W 002°05'0 0.0
2017-Aug-20 10:29N 57°09' W 002°05'0 0.0
2017-Aug-20 09:59N 57°09' W 002°05'0 0.0
2017-Aug-20 09:29N 57°09' W 002°05'0 0.0
2017-Aug-20 08:59N 57°09' W 002°05'0 0.0
2017-Aug-20 08:29N 57°09' W 002°05'0 0.0
2017-Aug-20 07:59N 57°09' W 002°05'0 0.0
2017-Aug-20 07:29N 57°09' W 002°05'0 0.0
2017-Aug-20 06:59N 57°09' W 002°05'0 0.0
2017-Aug-20 06:29N 57°09' W 002°05'0 0.0
2017-Aug-20 05:59N 57°09' W 002°05'0 0.0
2017-Aug-20 05:30N 57°09' W 002°05'1 2.5
2017-Aug-20 05:00N 57°09' W 002°03'714.7
2017-Aug-20 04:30N 57°15' W 001°54'2412.5
2017-Aug-20 02:36N 57°36' W 001°36'313.9
2017-Aug-20 02:23N 57°39' W 001°37'513.6
2017-Aug-20 02:00N 57°44' W 001°37'713.4
2017-Aug-20 01:30N 57°51' W 001°37'5 0.2
2017-Aug-18 20:31N 57°46' W 001°36'016.7
2017-Aug-18 20:30N 57°46' W 001°36'817.0
2017-Aug-18 20:01N 57°37' W 001°37'2117.2
2017-Aug-18 18:47N 57°17' W 001°51'518.8
2017-Aug-18 18:30N 57°13' W 001°57'612.9
2017-Aug-18 18:00N 57°09' W 002°05'0 0.8
2017-Aug-18 17:30N 57°09' W 002°05'0 0.0
2017-Aug-18 17:00N 57°09' W 002°05'0 0.0
2017-Aug-18 16:30N 57°09' W 002°05'0 0.0
2017-Aug-18 16:00N 57°09' W 002°05'0 0.0
2017-Aug-18 15:30N 57°09' W 002°05'0 0.0
2017-Aug-18 15:00N 57°09' W 002°05'0 0.0
2017-Aug-18 14:30N 57°09' W 002°05'0 0.0
2017-Aug-18 13:30N 57°09' W 002°05'0 0.0
2017-Aug-18 13:00N 57°09' W 002°05'0 0.0
2017-Aug-18 12:30N 57°09' W 002°05'0 0.0
2017-Aug-18 11:57N 57°09' W 002°05'0 0.0
2017-Aug-18 11:30N 57°09' W 002°05'0 0.0
2017-Aug-18 11:00N 57°09' W 002°05'0 0.0
2017-Aug-18 10:30N 57°09' W 002°05'0 0.0
2017-Aug-18 10:00N 57°09' W 002°05'0 0.0
2017-Aug-18 09:30N 57°09' W 002°05'0 0.0
2017-Aug-18 09:00N 57°09' W 002°05'0 0.0
2017-Aug-18 08:30N 57°09' W 002°05'0 0.0
2017-Aug-18 08:00N 57°09' W 002°05'0 0.0
2017-Aug-18 07:30N 57°09' W 002°05'0 0.0
2017-Aug-18 07:00N 57°09' W 002°05'0 0.0
2017-Aug-18 06:30N 57°09' W 002°05'0 0.0
2017-Aug-18 06:00N 57°09' W 002°05'0 1.0
2017-Aug-18 05:30N 57°09' W 002°05'3 5.0
2017-Aug-18 05:00N 57°10' W 002°01'510.4
2017-Aug-18 04:30N 57°14' W 001°55'2416.4
2017-Aug-18 03:02N 57°36' W 001°36'117.4
2017-Aug-18 03:00N 57°37' W 001°36'1217.2
2017-Aug-18 02:18N 57°49' W 001°38'3 0.1
2017-Aug-16 20:39N 57°52' W 001°37'618.7
2017-Aug-16 20:19N 57°46' W 001°37'518.0
2017-Aug-16 20:01N 57°40' W 001°36'2317.3
2017-Aug-16 18:41N 57°18' W 001°49'318.2
2017-Aug-16 18:31N 57°16' W 001°53'917.9
2017-Aug-16 18:00N 57°09' W 002°03'1 2.1
2017-Aug-16 17:28N 57°09' W 002°05'0 0.0
2017-Aug-16 16:58N 57°09' W 002°05'0 0.0
2017-Aug-16 16:28N 57°09' W 002°05'0 0.0
2017-Aug-16 15:58N 57°09' W 002°05'0 0.0
2017-Aug-16 15:28N 57°09' W 002°05'0 0.0
2017-Aug-16 14:58N 57°09' W 002°05'0 0.0
2017-Aug-16 14:28N 57°09' W 002°05'0 0.0
2017-Aug-16 13:58N 57°09' W 002°05'0 0.0
2017-Aug-16 13:28N 57°09' W 002°05'0 0.0
2017-Aug-16 12:58N 57°09' W 002°05'0 0.0
2017-Aug-16 12:28N 57°09' W 002°05'0 0.0
2017-Aug-16 11:58N 57°09' W 002°05'0 0.0
2017-Aug-16 11:28N 57°09' W 002°05'0 0.0
2017-Aug-16 10:58N 57°09' W 002°05'0 0.0
2017-Aug-16 10:28N 57°09' W 002°05'0 0.0
2017-Aug-16 09:58N 57°09' W 002°05'0 0.0
2017-Aug-16 09:28N 57°09' W 002°05'0 0.0
2017-Aug-16 08:58N 57°09' W 002°05'0 0.0
2017-Aug-16 08:28N 57°09' W 002°05'0 0.0
2017-Aug-16 07:58N 57°09' W 002°05'0 0.0
2017-Aug-16 07:28N 57°09' W 002°05'0 0.0
2017-Aug-16 06:58N 57°09' W 002°05'0 0.0
2017-Aug-16 06:28N 57°09' W 002°05'0 0.0
2017-Aug-16 05:59N 57°09' W 002°05'1 1.2
2017-Aug-16 05:31N 57°09' W 002°04'612.9
2017-Aug-16 05:00N 57°13' W 001°56'613.0
2017-Aug-16 04:30N 57°18' W 001°49'1913.0
2017-Aug-16 03:05N 57°36' W 001°37'118.1
2017-Aug-16 03:01N 57°37' W 001°38'1217.9
2017-Aug-16 02:19N 57°49' W 001°36'3 0.1
2017-Aug-14 20:42N 57°52' W 001°37'718.7
2017-Aug-14 20:19N 57°45' W 001°38'618.5
2017-Aug-14 20:01N 57°39' W 001°38'2117.6
2017-Aug-14 18:50N 57°19' W 001°48'618.1
2017-Aug-14 18:31N 57°14' W 001°54'816.2
2017-Aug-14 18:00N 57°09' W 002°04'1 1.4
2017-Aug-14 17:29N 57°09' W 002°05'0 0.0
2017-Aug-14 16:59N 57°09' W 002°05'0 0.0
2017-Aug-14 16:29N 57°09' W 002°05'0 0.0
2017-Aug-14 15:59N 57°09' W 002°05'0 0.0
2017-Aug-14 15:29N 57°09' W 002°05'0 0.0
2017-Aug-14 14:59N 57°09' W 002°05'0 0.0
2017-Aug-14 14:29N 57°09' W 002°05'0 0.0
2017-Aug-14 13:59N 57°09' W 002°05'0 0.0
2017-Aug-14 13:29N 57°09' W 002°05'0 0.0
2017-Aug-14 12:59N 57°09' W 002°05'0 0.0
2017-Aug-14 12:29N 57°09' W 002°05'0 0.0
2017-Aug-14 11:59N 57°09' W 002°05'0 0.0
2017-Aug-14 11:29N 57°09' W 002°05'0 0.0
2017-Aug-14 10:59N 57°09' W 002°05'0 0.0
2017-Aug-14 10:29N 57°09' W 002°05'0 0.0
2017-Aug-14 09:59N 57°09' W 002°05'0 0.0
2017-Aug-14 09:29N 57°09' W 002°05'0 0.0
2017-Aug-14 08:59N 57°09' W 002°05'0 0.0
2017-Aug-14 08:29N 57°09' W 002°05'0 0.0
2017-Aug-14 07:59N 57°09' W 002°05'0 0.0
2017-Aug-14 07:29N 57°09' W 002°05'0 0.0
2017-Aug-14 06:58N 57°09' W 002°05'0 0.0
2017-Aug-14 06:28N 57°09' W 002°05'0 0.0
2017-Aug-14 05:59N 57°09' W 002°05'1 1.4
2017-Aug-14 05:31N 57°08' W 002°04'612.5
2017-Aug-14 05:00N 57°13' W 001°56'1513.0
2017-Aug-14 03:53N 57°25' W 001°42'712.6
2017-Aug-14 03:20N 57°32' W 001°37'514.0
2017-Aug-14 03:00N 57°36' W 001°36'713.6
2017-Aug-14 02:29N 57°43' W 001°36'713.3
2017-Aug-14 01:58N 57°50' W 001°36'79 3.1
2017-Aug-13 00:11N 59°04' W 002°27'212.6
2017-Aug-13 00:00N 59°03' W 002°30'612.2
2017-Aug-12 23:30N 59°01' W 002°41'714.6
2017-Aug-12 23:00N 59°01' W 002°55'2 1.9
2017-Aug-12 21:54N 58°60' W 002°58'  

Dump ship's entire track history